createdAt,value
2024-04-07T00:00:02.790Z,95425.00
2024-04-07T00:01:02.813Z,95421.00
2024-04-07T00:02:02.838Z,95419.00
2024-04-07T00:03:02.909Z,95418.00
2024-04-07T00:04:02.946Z,95416.00
2024-04-07T00:05:02.955Z,95413.00
2024-04-07T00:06:03.002Z,95412.00
2024-04-07T00:07:03.033Z,95409.00
2024-04-07T00:08:03.114Z,95406.00
2024-04-07T00:09:03.240Z,95407.00
2024-04-07T00:10:03.202Z,95405.00
2024-04-07T00:11:03.257Z,95407.00
2024-04-07T00:13:09.877Z,95411.00
2024-04-07T00:14:09.867Z,95412.00
2024-04-07T00:15:09.855Z,95415.00
2024-04-07T00:16:09.853Z,95419.00
2024-04-07T00:17:09.845Z,95417.00
2024-04-07T00:18:09.812Z,95419.00
2024-04-07T00:19:09.817Z,95421.00
2024-04-07T00:20:09.787Z,95418.00
2024-04-07T00:21:09.780Z,95418.00
2024-04-07T00:22:09.770Z,95417.00
2024-04-07T00:23:09.734Z,95418.00
2024-04-07T00:24:09.733Z,95419.00
2024-04-07T00:25:09.706Z,95418.00
2024-04-07T00:26:10.023Z,95418.00
2024-04-07T00:27:09.661Z,95418.00
2024-04-07T00:28:09.641Z,95420.00
2024-04-07T00:29:09.632Z,95415.00
2024-04-07T00:30:09.624Z,95415.00
2024-04-07T00:31:09.630Z,95414.00
2024-04-07T00:32:09.567Z,95411.00
2024-04-07T00:33:09.556Z,95411.00
2024-04-07T00:34:09.575Z,95409.00
2024-04-07T00:35:09.570Z,95409.00
2024-04-07T00:36:09.558Z,95411.00
2024-04-07T00:37:09.538Z,95412.00
2024-04-07T00:38:09.545Z,95412.00
2024-04-07T00:39:09.521Z,95413.00
2024-04-07T00:40:09.490Z,95414.00
2024-04-07T00:41:09.493Z,95414.00
2024-04-07T00:42:09.466Z,95416.00
2024-04-07T00:43:09.433Z,95415.00
2024-04-07T00:44:09.404Z,95417.00
2024-04-07T00:45:09.401Z,95421.00
2024-04-07T00:46:09.385Z,95424.00
2024-04-07T00:47:09.375Z,95426.00
2024-04-07T00:48:09.351Z,95429.00
2024-04-07T00:49:09.318Z,95428.00
2024-04-07T00:50:09.364Z,95431.00
2024-04-07T00:51:09.298Z,95431.00
2024-04-07T00:52:09.310Z,95430.00
2024-04-07T00:53:09.269Z,95432.00
2024-04-07T00:54:09.237Z,95429.00
2024-04-07T00:55:09.212Z,95433.00
2024-04-07T00:56:09.196Z,95432.00
2024-04-07T00:57:09.303Z,95430.00
2024-04-07T00:58:11.533Z,95433.00
2024-04-07T00:59:09.227Z,95432.00
2024-04-07T01:00:09.169Z,95431.00
2024-04-07T01:01:09.312Z,95433.00
2024-04-07T01:02:09.226Z,95430.00
2024-04-07T01:03:09.135Z,95433.00
2024-04-07T01:04:09.173Z,95434.00
2024-04-07T01:05:09.148Z,95436.00
2024-04-07T01:06:09.138Z,95434.00
2024-04-07T01:07:09.043Z,95437.00
2024-04-07T01:08:09.012Z,95439.00
2024-04-07T01:09:09.083Z,95439.00
2024-04-07T01:10:09.036Z,95440.00
2024-04-07T01:11:09.027Z,95442.00
2024-04-07T01:12:09.017Z,95444.00
2024-04-07T01:13:08.989Z,95445.00
2024-04-07T01:14:08.996Z,95447.00
2024-04-07T01:15:08.977Z,95452.00
2024-04-07T01:16:08.933Z,95454.00
2024-04-07T01:17:08.944Z,95457.00
2024-04-07T01:18:08.920Z,95456.00
2024-04-07T01:19:08.903Z,95455.00
2024-04-07T01:20:08.893Z,95456.00
2024-04-07T01:21:08.888Z,95457.00
2024-04-07T01:22:08.886Z,95458.00
2024-04-07T01:23:08.855Z,95457.00
2024-04-07T01:24:08.871Z,95460.00
2024-04-07T01:25:08.823Z,95460.00
2024-04-07T01:26:08.833Z,95459.00
2024-04-07T01:27:08.803Z,95461.00
2024-04-07T01:28:08.782Z,95459.00
2024-04-07T01:29:08.849Z,95459.00
2024-04-07T01:30:08.767Z,95460.00
2024-04-07T01:31:08.726Z,95456.00
2024-04-07T01:32:08.695Z,95452.00
2024-04-07T01:33:08.718Z,95453.00
2024-04-07T01:34:08.693Z,95454.00
2024-04-07T01:35:08.670Z,95454.00
2024-04-07T01:36:08.650Z,95455.00
2024-04-07T01:37:08.639Z,95459.00
2024-04-07T01:38:08.656Z,95459.00
2024-04-07T01:39:08.610Z,95460.00
2024-04-07T01:40:08.654Z,95459.00
2024-04-07T01:41:08.589Z,95460.00
2024-04-07T01:42:08.576Z,95463.00
2024-04-07T01:43:08.560Z,95465.00
2024-04-07T01:44:08.537Z,95466.00
2024-04-07T01:45:08.536Z,95467.00
2024-04-07T01:46:08.528Z,95468.00
2024-04-07T01:47:08.494Z,95468.00
2024-04-07T01:48:08.469Z,95464.00
2024-04-07T01:49:08.473Z,95465.00
2024-04-07T01:50:08.465Z,95464.00
2024-04-07T01:51:08.469Z,95463.00
2024-04-07T01:52:08.446Z,95464.00
2024-04-07T01:53:08.410Z,95461.00
2024-04-07T01:54:08.415Z,95457.00
2024-04-07T01:55:08.418Z,95460.00
2024-04-07T01:56:08.392Z,95459.00
2024-04-07T01:57:08.355Z,95458.00
2024-04-07T01:58:08.366Z,95458.00
2024-04-07T01:59:08.359Z,95458.00
2024-04-07T02:00:08.393Z,95458.00
2024-04-07T02:01:08.399Z,95458.00
2024-04-07T02:02:08.470Z,95460.00
2024-04-07T02:03:08.544Z,95457.00
2024-04-07T02:04:08.588Z,95455.00
2024-04-07T02:05:08.631Z,95456.00
2024-04-07T02:06:08.678Z,95456.00
2024-04-07T02:07:08.743Z,95453.00
2024-04-07T02:08:08.799Z,95453.00
2024-04-07T02:09:08.840Z,95453.00
2024-04-07T02:10:08.893Z,95453.00
2024-04-07T02:11:08.964Z,95450.00
2024-04-07T02:12:09.007Z,95452.00
2024-04-07T02:13:09.058Z,95454.00
2024-04-07T02:14:09.089Z,95453.00
2024-04-07T02:15:09.172Z,95452.00
2024-04-07T02:16:09.227Z,95448.00
2024-04-07T02:17:09.336Z,95449.00
2024-04-07T02:18:09.320Z,95446.00
2024-04-07T02:19:09.367Z,95447.00
2024-04-07T02:20:09.450Z,95446.00
2024-04-07T02:21:09.461Z,95449.00
2024-04-07T02:22:09.522Z,95447.00
2024-04-07T02:23:09.546Z,95449.00
2024-04-07T02:24:09.615Z,95449.00
2024-04-07T02:25:09.643Z,95449.00
2024-04-07T02:26:09.721Z,95450.00
2024-04-07T02:27:09.783Z,95450.00
2024-04-07T02:28:09.816Z,95450.00
2024-04-07T02:29:09.879Z,95455.00
2024-04-07T02:30:09.923Z,95454.00
2024-04-07T02:31:09.998Z,95454.00
2024-04-07T02:32:10.023Z,95457.00
2024-04-07T02:33:10.069Z,95459.00
2024-04-07T02:34:10.128Z,95460.00
2024-04-07T02:35:10.190Z,95460.00
2024-04-07T02:36:10.225Z,95463.00
2024-04-07T02:37:10.259Z,95464.00
2024-04-07T02:38:10.314Z,95463.00
2024-04-07T02:39:10.348Z,95463.00
2024-04-07T02:40:10.434Z,95463.00
2024-04-07T02:41:10.475Z,95463.00
2024-04-07T02:42:10.552Z,95463.00
2024-04-07T02:43:10.546Z,95464.00
2024-04-07T02:44:10.610Z,95466.00
2024-04-07T02:45:10.672Z,95467.00
2024-04-07T02:46:10.706Z,95465.00
2024-04-07T02:47:10.766Z,95469.00
2024-04-07T02:48:10.822Z,95472.00
2024-04-07T02:49:10.868Z,95473.00
2024-04-07T02:50:10.901Z,95473.00
2024-04-07T02:51:10.963Z,95472.00
2024-04-07T02:52:11.004Z,95472.00
2024-04-07T02:53:11.088Z,95471.00
2024-04-07T02:54:11.115Z,95472.00
2024-04-07T02:55:11.164Z,95472.00
2024-04-07T02:56:11.205Z,95473.00
2024-04-07T02:57:11.262Z,95475.00
2024-04-07T02:58:11.302Z,95478.00
2024-04-07T02:59:11.346Z,95478.00
2024-04-07T03:00:11.411Z,95480.00
2024-04-07T03:01:11.465Z,95481.00
2024-04-07T03:02:11.532Z,95484.00
2024-04-07T03:03:11.540Z,95484.00
2024-04-07T03:04:11.605Z,95486.00
2024-04-07T03:05:11.629Z,95484.00
2024-04-07T03:06:11.708Z,95483.00
2024-04-07T03:07:11.736Z,95485.00
2024-04-07T03:08:11.777Z,95480.00
2024-04-07T03:09:11.818Z,95480.00
2024-04-07T03:10:11.907Z,95480.00
2024-04-07T03:11:11.966Z,95479.00
2024-04-07T03:12:12.006Z,95479.00
2024-04-07T03:13:12.046Z,95478.00
2024-04-07T03:14:12.082Z,95478.00
2024-04-07T03:15:12.139Z,95479.00
2024-04-07T03:16:12.175Z,95479.00
2024-04-07T03:17:12.227Z,95479.00
2024-04-07T03:18:12.310Z,95480.00
2024-04-07T03:19:12.341Z,95481.00
2024-04-07T03:20:12.393Z,95481.00
2024-04-07T03:21:12.439Z,95479.00
2024-04-07T03:22:12.497Z,95480.00
2024-04-07T03:23:12.526Z,95479.00
2024-04-07T03:24:12.580Z,95478.00
2024-04-07T03:25:12.643Z,95477.00
2024-04-07T03:26:12.696Z,95479.00
2024-04-07T03:27:12.748Z,95475.00
2024-04-07T03:28:12.812Z,95478.00
2024-04-07T03:29:12.850Z,95476.00
2024-04-07T03:30:12.936Z,95475.00
2024-04-07T03:31:12.979Z,95476.00
2024-04-07T03:32:13.001Z,95477.00
2024-04-07T03:33:13.075Z,95479.00
2024-04-07T03:34:13.123Z,95481.00
2024-04-07T03:35:13.210Z,95479.00
2024-04-07T03:36:13.216Z,95480.00
2024-04-07T03:37:13.261Z,95476.00
2024-04-07T03:38:13.318Z,95475.00
2024-04-07T03:39:13.354Z,95474.00
2024-04-07T03:40:13.415Z,95476.00
2024-04-07T03:41:13.504Z,95476.00
2024-04-07T03:42:13.531Z,95478.00
2024-04-07T03:43:13.584Z,95479.00
2024-04-07T03:44:13.638Z,95476.00
2024-04-07T03:45:13.692Z,95479.00
2024-04-07T03:46:13.734Z,95480.00
2024-04-07T03:47:13.767Z,95481.00
2024-04-07T03:48:13.811Z,95481.00
2024-04-07T03:49:13.874Z,95478.00
2024-04-07T03:50:13.927Z,95479.00
2024-04-07T03:51:13.961Z,95475.00
2024-04-07T03:52:14.011Z,95480.00
2024-04-07T03:53:14.050Z,95482.00
2024-04-07T03:54:14.117Z,95478.00
2024-04-07T03:55:14.156Z,95481.00
2024-04-07T03:56:14.197Z,95484.00
2024-04-07T03:57:14.266Z,95487.00
2024-04-07T03:58:14.298Z,95489.00
2024-04-07T03:59:14.345Z,95492.00
2024-04-07T04:00:14.388Z,95493.00
2024-04-07T04:01:14.471Z,95493.00
2024-04-07T04:02:14.525Z,95496.00
2024-04-07T04:03:14.545Z,95499.00
2024-04-07T04:04:14.605Z,95499.00
2024-04-07T04:05:14.664Z,95498.00
2024-04-07T04:06:14.724Z,95499.00
2024-04-07T04:07:14.762Z,95500.00
2024-04-07T04:08:14.806Z,95501.00
2024-04-07T04:09:14.866Z,95500.00
2024-04-07T04:10:14.892Z,95502.00
2024-04-07T04:11:14.982Z,95500.00
2024-04-07T04:12:15.062Z,95500.00
2024-04-07T04:13:15.072Z,95502.00
2024-04-07T04:14:15.099Z,95500.00
2024-04-07T04:15:15.170Z,95503.00
2024-04-07T04:16:15.228Z,95501.00
2024-04-07T04:17:15.254Z,95504.00
2024-04-07T04:18:15.305Z,95505.00
2024-04-07T04:19:15.378Z,95507.00
2024-04-07T04:20:15.420Z,95502.00
2024-04-07T04:21:15.467Z,95505.00
2024-04-07T04:22:15.516Z,95507.00
2024-04-07T04:23:15.584Z,95508.00
2024-04-07T04:24:15.625Z,95507.00
2024-04-07T04:25:15.671Z,95509.00
2024-04-07T04:26:15.748Z,95510.00
2024-04-07T04:27:15.778Z,95510.00
2024-04-07T04:28:15.816Z,95511.00
2024-04-07T04:29:15.868Z,95511.00
2024-04-07T04:30:23.055Z,95509.00
2024-04-07T04:31:30.244Z,95511.00
2024-04-07T04:32:30.210Z,95512.00
2024-04-07T04:33:30.213Z,95510.00
2024-04-07T04:34:30.193Z,95512.00
2024-04-07T04:35:30.182Z,95515.00
2024-04-07T04:36:30.175Z,95515.00
2024-04-07T04:37:30.867Z,95517.00
2024-04-07T04:38:30.146Z,95518.00
2024-04-07T04:39:30.140Z,95522.00
2024-04-07T04:40:30.104Z,95524.00
2024-04-07T04:41:30.107Z,95525.00
2024-04-07T04:42:30.076Z,95526.00
2024-04-07T04:43:30.081Z,95525.00
2024-04-07T04:44:30.059Z,95526.00
2024-04-07T04:45:30.055Z,95525.00
2024-04-07T04:46:30.045Z,95526.00
2024-04-07T04:47:30.035Z,95528.00
2024-04-07T04:48:30.010Z,95524.00
2024-04-07T04:49:30.018Z,95528.00
2024-04-07T04:50:29.988Z,95528.00
2024-04-07T04:51:29.968Z,95528.00
2024-04-07T04:52:29.968Z,95529.00
2024-04-07T04:53:29.950Z,95529.00
2024-04-07T04:54:29.935Z,95527.00
2024-04-07T04:55:29.918Z,95526.00
2024-04-07T04:56:29.926Z,95527.00
2024-04-07T04:57:29.907Z,95526.00
2024-04-07T04:58:29.874Z,95527.00
2024-04-07T04:59:29.888Z,95529.00
2024-04-07T05:00:29.904Z,95530.00
2024-04-07T05:01:29.864Z,95531.00
2024-04-07T05:02:29.848Z,95533.00
2024-04-07T05:03:29.860Z,95534.00
2024-04-07T05:04:29.820Z,95534.00
2024-04-07T05:05:29.818Z,95536.00
2024-04-07T05:06:29.806Z,95538.00
2024-04-07T05:07:29.801Z,95539.00
2024-04-07T05:08:29.812Z,95542.00
2024-04-07T05:09:29.774Z,95538.00
2024-04-07T05:10:29.765Z,95540.00
2024-04-07T05:11:29.778Z,95540.00
2024-04-07T05:12:29.758Z,95541.00
2024-04-07T05:13:29.771Z,95544.00
2024-04-07T05:14:29.834Z,95547.00
2024-04-07T05:15:29.887Z,95549.00
2024-04-07T05:16:29.945Z,95552.00
2024-04-07T05:17:30.019Z,95551.00
2024-04-07T05:18:30.084Z,95552.00
2024-04-07T05:19:30.118Z,95556.00
2024-04-07T05:21:24.792Z,95558.00
2024-04-07T05:22:24.813Z,95558.00
2024-04-07T05:23:24.833Z,95558.00
2024-04-07T05:24:24.849Z,95561.00
2024-04-07T05:25:24.870Z,95560.00
2024-04-07T05:26:24.883Z,95564.00
2024-04-07T05:27:24.923Z,95564.00
2024-04-07T05:28:24.935Z,95563.00
2024-04-07T05:29:24.963Z,95565.00
2024-04-07T05:30:25.886Z,95562.00
2024-04-07T05:31:25.021Z,95563.00
2024-04-07T05:32:25.039Z,95565.00
2024-04-07T05:33:25.063Z,95563.00
2024-04-07T05:34:25.066Z,95565.00
2024-04-07T05:35:25.105Z,95566.00
2024-04-07T05:36:25.128Z,95565.00
2024-04-07T05:37:25.159Z,95565.00
2024-04-07T05:38:25.176Z,95566.00
2024-04-07T05:39:25.259Z,95565.00
2024-04-07T05:40:25.347Z,95566.00
2024-04-07T05:41:25.423Z,95565.00
2024-04-07T05:42:25.528Z,95567.00
2024-04-07T05:43:25.641Z,95564.00
2024-04-07T05:44:25.727Z,95565.00
2024-04-07T05:45:25.831Z,95564.00
2024-04-07T05:46:25.913Z,95564.00
2024-04-07T05:47:26.081Z,95563.00
2024-04-07T05:48:26.127Z,95562.00
2024-04-07T05:49:26.203Z,95559.00
2024-04-07T05:50:26.286Z,95559.00
2024-04-07T05:51:26.379Z,95557.00
2024-04-07T05:52:26.486Z,95556.00
2024-04-07T05:53:26.580Z,95558.00
2024-04-07T05:54:26.640Z,95562.00
2024-04-07T05:55:26.728Z,95559.00
2024-04-07T05:56:26.819Z,95561.00
2024-04-07T05:57:26.943Z,95562.00
2024-04-07T05:58:27.013Z,95559.00
2024-04-07T05:59:27.095Z,95558.00
2024-04-07T06:00:27.199Z,95559.00
2024-04-07T06:01:27.309Z,95556.00
2024-04-07T06:02:27.401Z,95556.00
2024-04-07T06:03:27.475Z,95557.00
2024-04-07T06:04:27.560Z,95558.00
2024-04-07T06:05:27.656Z,95556.00
2024-04-07T06:06:27.760Z,95559.00
2024-04-07T06:07:27.841Z,95559.00
2024-04-07T06:08:27.907Z,95558.00
2024-04-07T06:09:27.996Z,95559.00
2024-04-07T06:10:28.088Z,95561.00
2024-04-07T06:11:28.187Z,95563.00
2024-04-07T06:12:28.314Z,95565.00
2024-04-07T06:13:28.394Z,95567.00
2024-04-07T06:14:28.484Z,95563.00
2024-04-07T06:15:28.555Z,95565.00
2024-04-07T06:16:28.676Z,95566.00
2024-04-07T06:17:28.753Z,95564.00
2024-04-07T06:18:28.827Z,95563.00
2024-04-07T06:19:28.924Z,95561.00
2024-04-07T06:20:29.041Z,95559.00
2024-04-07T06:21:29.910Z,95561.00
2024-04-07T06:22:29.200Z,95559.00
2024-04-07T06:23:29.263Z,95561.00
2024-04-07T06:24:29.350Z,95559.00
2024-04-07T06:25:29.393Z,95560.00
2024-04-07T06:26:29.466Z,95559.00
2024-04-07T06:27:29.564Z,95559.00
2024-04-07T06:28:29.655Z,95561.00
2024-04-07T06:29:29.728Z,95559.00
2024-04-07T06:30:29.788Z,95559.00
2024-04-07T06:31:29.880Z,95556.00
2024-04-07T06:32:29.968Z,95558.00
2024-04-07T06:33:30.055Z,95558.00
2024-04-07T06:34:30.145Z,95559.00
2024-04-07T06:35:30.203Z,95558.00
2024-04-07T06:36:31.893Z,95556.00
2024-04-07T06:37:30.347Z,95557.00
2024-04-07T06:38:30.330Z,95556.00
2024-04-07T06:39:30.332Z,95555.00
2024-04-07T06:40:30.371Z,95555.00
2024-04-07T06:41:30.393Z,95557.00
2024-04-07T06:42:30.415Z,95556.00
2024-04-07T06:43:30.419Z,95559.00
2024-04-07T06:44:30.469Z,95559.00
2024-04-07T06:45:30.483Z,95560.00
2024-04-07T06:46:30.528Z,95559.00
2024-04-07T06:47:30.549Z,95560.00
2024-04-07T06:48:30.546Z,95560.00
2024-04-07T06:49:30.589Z,95562.00
2024-04-07T06:50:30.605Z,95563.00
2024-04-07T06:51:30.615Z,95564.00
2024-04-07T06:52:30.639Z,95568.00
2024-04-07T06:53:30.666Z,95566.00
2024-04-07T06:54:30.677Z,95570.00
2024-04-07T06:55:30.713Z,95567.00
2024-04-07T06:56:30.739Z,95569.00
2024-04-07T06:57:30.747Z,95569.00
2024-04-07T06:58:30.770Z,95571.00
2024-04-07T06:59:30.774Z,95567.00
2024-04-07T07:00:30.837Z,95567.00
2024-04-07T07:01:30.835Z,95567.00
2024-04-07T07:02:30.906Z,95566.00
2024-04-07T07:03:30.930Z,95566.00
2024-04-07T07:04:30.929Z,95565.00
2024-04-07T07:05:30.976Z,95564.00
2024-04-07T07:06:31.014Z,95566.00
2024-04-07T07:07:31.030Z,95564.00
2024-04-07T07:08:31.051Z,95564.00
2024-04-07T07:09:31.071Z,95564.00
2024-04-07T07:10:31.102Z,95563.00
2024-04-07T07:11:31.111Z,95561.00
2024-04-07T07:12:31.144Z,95560.00
2024-04-07T07:13:33.515Z,95560.00
2024-04-07T07:14:31.190Z,95563.00
2024-04-07T07:15:31.191Z,95563.00
2024-04-07T07:16:31.829Z,95563.00
2024-04-07T07:17:31.273Z,95560.00
2024-04-07T07:18:31.285Z,95559.00
2024-04-07T07:19:31.308Z,95558.00
2024-04-07T07:20:31.295Z,95556.00
2024-04-07T07:21:31.382Z,95556.00
2024-04-07T07:22:31.388Z,95556.00
2024-04-07T07:23:31.411Z,95559.00
2024-04-07T07:24:31.454Z,95560.00
2024-04-07T07:25:31.466Z,95556.00
2024-04-07T07:26:31.507Z,95557.00
2024-04-07T07:27:31.507Z,95559.00
2024-04-07T07:28:31.535Z,95559.00
2024-04-07T07:29:31.566Z,95558.00
2024-04-07T07:30:31.593Z,95559.00
2024-04-07T07:31:31.586Z,95558.00
2024-04-07T07:32:31.657Z,95561.00
2024-04-07T07:33:31.654Z,95560.00
2024-04-07T07:34:31.659Z,95563.00
2024-04-07T07:35:31.703Z,95565.00
2024-04-07T07:36:32.658Z,95564.00
2024-04-07T07:37:31.760Z,95565.00
2024-04-07T07:38:31.776Z,95564.00
2024-04-07T07:39:31.796Z,95563.00
2024-04-07T07:40:31.817Z,95564.00
2024-04-07T07:41:31.846Z,95563.00
2024-04-07T07:42:31.886Z,95565.00
2024-04-07T07:43:31.897Z,95565.00
2024-04-07T07:44:31.959Z,95566.00
2024-04-07T07:45:31.936Z,95563.00
2024-04-07T07:46:31.997Z,95562.00
2024-04-07T07:47:32.008Z,95563.00
2024-04-07T07:48:32.017Z,95564.00
2024-04-07T07:49:32.020Z,95564.00
2024-04-07T07:50:32.071Z,95561.00
2024-04-07T07:51:32.069Z,95564.00
2024-04-07T07:52:32.130Z,95563.00
2024-04-07T07:53:32.114Z,95565.00
2024-04-07T07:54:32.218Z,95563.00
2024-04-07T07:55:32.331Z,95566.00
2024-04-07T07:56:32.431Z,95566.00
2024-04-07T07:57:32.580Z,95571.00
2024-04-07T07:58:32.678Z,95570.00
2024-04-07T07:59:32.793Z,95570.00
2024-04-07T08:00:32.923Z,95569.00
2024-04-07T08:01:33.031Z,95570.00
2024-04-07T08:02:33.152Z,95573.00
2024-04-07T08:03:33.302Z,95570.00
2024-04-07T08:04:33.404Z,95570.00
2024-04-07T08:05:33.526Z,95571.00
2024-04-07T08:06:33.621Z,95568.00
2024-04-07T08:07:33.766Z,95569.00
2024-04-07T08:08:33.923Z,95568.00
2024-04-07T08:09:33.995Z,95568.00
2024-04-07T08:10:34.116Z,95568.00
2024-04-07T08:11:34.208Z,95568.00
2024-04-07T08:12:38.443Z,95565.00
2024-04-07T08:13:34.340Z,95567.00
2024-04-07T08:14:34.373Z,95566.00
2024-04-07T08:15:34.421Z,95563.00
2024-04-07T08:16:34.951Z,95562.00
2024-04-07T08:17:34.471Z,95563.00
2024-04-07T08:18:34.467Z,95565.00
2024-04-07T08:19:34.514Z,95564.00
2024-04-07T08:20:34.496Z,95565.00
2024-04-07T08:21:34.497Z,95560.00
2024-04-07T08:22:34.554Z,95563.00
2024-04-07T08:23:34.554Z,95560.00
2024-04-07T08:24:34.565Z,95560.00
2024-04-07T08:25:34.595Z,95561.00
2024-04-07T08:26:34.607Z,95561.00
2024-04-07T08:27:34.654Z,95563.00
2024-04-07T08:28:34.665Z,95561.00
2024-04-07T08:29:34.673Z,95564.00
2024-04-07T08:30:34.668Z,95561.00
2024-04-07T08:31:34.697Z,95560.00
2024-04-07T08:32:34.741Z,95555.00
2024-04-07T08:33:34.743Z,95550.00
2024-04-07T08:34:34.752Z,95550.00
2024-04-07T08:35:34.854Z,95551.00
2024-04-07T08:36:34.983Z,95554.00
2024-04-07T08:37:35.081Z,95557.00
2024-04-07T08:38:35.734Z,95555.00
2024-04-07T08:39:35.335Z,95554.00
2024-04-07T08:40:35.442Z,95551.00
2024-04-07T08:41:35.589Z,95550.00
2024-04-07T08:42:35.700Z,95546.00
2024-04-07T08:43:35.839Z,95545.00
2024-04-07T08:44:35.951Z,95545.00
2024-04-07T08:45:36.080Z,95542.00
2024-04-07T08:46:36.202Z,95540.00
2024-04-07T08:47:36.333Z,95541.00
2024-04-07T08:48:36.440Z,95536.00
2024-04-07T08:49:36.567Z,95535.00
2024-04-07T08:50:36.692Z,95534.00
2024-04-07T08:51:36.811Z,95535.00
2024-04-07T08:52:36.948Z,95528.00
2024-04-07T08:53:37.058Z,95528.00
2024-04-07T08:54:37.186Z,95529.00
2024-04-07T08:55:37.286Z,95528.00
2024-04-07T08:56:37.419Z,95525.00
2024-04-07T08:57:37.536Z,95525.00
2024-04-07T08:58:37.652Z,95522.00
2024-04-07T08:59:37.762Z,95525.00
2024-04-07T09:00:37.893Z,95523.00
2024-04-07T09:01:38.008Z,95522.00
2024-04-07T09:02:38.126Z,95521.00
2024-04-07T09:03:38.224Z,95518.00
2024-04-07T09:04:38.327Z,95516.00
2024-04-07T09:05:38.470Z,95514.00
2024-04-07T09:06:38.571Z,95510.00
2024-04-07T09:07:38.690Z,95510.00
2024-04-07T09:08:38.791Z,95506.00
2024-04-07T09:09:38.898Z,95506.00
2024-04-07T09:10:39.199Z,95508.00
2024-04-07T09:11:39.138Z,95506.00
2024-04-07T09:12:39.274Z,95505.00
2024-04-07T09:13:39.418Z,95501.00
2024-04-07T09:14:39.486Z,95502.00
2024-04-07T09:15:39.587Z,95498.00
2024-04-07T09:16:39.723Z,95499.00
2024-04-07T09:17:39.813Z,95494.00
2024-04-07T09:18:39.945Z,95494.00
2024-04-07T09:19:40.059Z,95493.00
2024-04-07T09:20:40.230Z,95491.00
2024-04-07T09:21:40.255Z,95489.00
2024-04-07T09:22:40.377Z,95492.00
2024-04-07T09:23:40.484Z,95491.00
2024-04-07T09:24:40.655Z,95492.00
2024-04-07T09:25:40.728Z,95492.00
2024-04-07T09:26:40.840Z,95493.00
2024-04-07T09:27:40.987Z,95493.00
2024-04-07T09:28:41.066Z,95492.00
2024-04-07T09:29:41.161Z,95487.00
2024-04-07T09:30:41.278Z,95489.00
2024-04-07T09:31:41.397Z,95491.00
2024-04-07T09:32:41.520Z,95491.00
2024-04-07T09:33:41.628Z,95491.00
2024-04-07T09:34:41.749Z,95491.00
2024-04-07T09:35:41.870Z,95488.00
2024-04-07T09:36:42.001Z,95488.00
2024-04-07T09:37:42.115Z,95490.00
2024-04-07T09:38:42.234Z,95490.00
2024-04-07T09:39:42.320Z,95487.00
2024-04-07T09:40:42.435Z,95488.00
2024-04-07T09:41:42.546Z,95484.00
2024-04-07T09:42:42.655Z,95484.00
2024-04-07T09:43:42.790Z,95484.00
2024-04-07T09:44:42.911Z,95478.00
2024-04-07T09:45:43.029Z,95476.00
2024-04-07T09:46:43.155Z,95476.00
2024-04-07T09:47:43.253Z,95476.00
2024-04-07T09:48:43.365Z,95474.00
2024-04-07T09:49:43.514Z,95475.00
2024-04-07T09:50:43.626Z,95473.00
2024-04-07T09:51:43.723Z,95472.00
2024-04-07T09:52:43.840Z,95475.00
2024-04-07T09:53:43.961Z,95474.00
2024-04-07T09:54:44.072Z,95474.00
2024-04-07T09:55:44.170Z,95471.00
2024-04-07T09:56:44.334Z,95468.00
2024-04-07T09:57:44.429Z,95463.00
2024-04-07T09:58:44.560Z,95462.00
2024-04-07T09:59:44.684Z,95460.00
2024-04-07T10:00:44.814Z,95457.00
2024-04-07T10:01:44.929Z,95459.00
2024-04-07T10:02:45.060Z,95457.00
2024-04-07T10:03:45.155Z,95458.00
2024-04-07T10:04:45.292Z,95455.00
2024-04-07T10:05:45.396Z,95455.00
2024-04-07T10:06:45.542Z,95454.00
2024-04-07T10:07:45.671Z,95451.00
2024-04-07T10:08:45.788Z,95447.00
2024-04-07T10:09:45.916Z,95450.00
2024-04-07T10:10:55.272Z,95448.00
2024-04-07T10:11:47.056Z,95448.00
2024-04-07T10:12:46.063Z,95448.00
2024-04-07T10:13:46.071Z,95450.00
2024-04-07T10:14:46.094Z,95450.00
2024-04-07T10:15:46.090Z,95451.00
2024-04-07T10:16:46.128Z,95450.00
2024-04-07T10:17:46.124Z,95450.00
2024-04-07T10:18:46.132Z,95449.00
2024-04-07T10:19:46.154Z,95448.00
2024-04-07T10:20:46.180Z,95446.00
2024-04-07T10:21:46.198Z,95444.00
2024-04-07T10:22:46.195Z,95444.00
2024-04-07T10:23:48.915Z,95441.00
2024-04-07T10:24:46.197Z,95441.00
2024-04-07T10:25:46.217Z,95437.00
2024-04-07T10:26:46.310Z,95435.00
2024-04-07T10:27:46.261Z,95431.00
2024-04-07T10:28:46.430Z,95431.00
2024-04-07T10:29:46.320Z,95431.00
2024-04-07T10:30:46.335Z,95428.00
2024-04-07T10:31:46.338Z,95426.00
2024-04-07T10:32:46.360Z,95425.00
2024-04-07T10:33:46.356Z,95422.00
2024-04-07T10:34:46.372Z,95422.00
2024-04-07T10:35:46.378Z,95419.00
2024-04-07T10:36:46.421Z,95418.00
2024-04-07T10:37:46.406Z,95420.00
2024-04-07T10:38:46.410Z,95420.00
2024-04-07T10:39:46.437Z,95418.00
2024-04-07T10:40:46.445Z,95421.00
2024-04-07T10:41:46.441Z,95418.00
2024-04-07T10:42:46.470Z,95416.00
2024-04-07T10:43:46.485Z,95414.00
2024-04-07T10:44:46.480Z,95413.00
2024-04-07T10:45:46.527Z,95410.00
2024-04-07T10:46:46.553Z,95408.00
2024-04-07T10:47:46.542Z,95410.00
2024-04-07T10:48:46.570Z,95408.00
2024-04-07T10:49:46.577Z,95409.00
2024-04-07T10:50:46.617Z,95406.00
2024-04-07T10:51:46.588Z,95404.00
2024-04-07T10:52:46.576Z,95402.00
2024-04-07T10:53:46.583Z,95405.00
2024-04-07T10:54:46.600Z,95403.00
2024-04-07T10:55:46.736Z,95400.00
2024-04-07T10:56:46.642Z,95397.00
2024-04-07T10:57:46.651Z,95400.00
2024-04-07T10:58:46.652Z,95398.00
2024-04-07T10:59:46.668Z,95398.00
2024-04-07T11:00:46.678Z,95398.00
2024-04-07T11:01:46.760Z,95395.00
2024-04-07T11:02:46.855Z,95394.00
2024-04-07T11:03:46.990Z,95396.00
2024-04-07T11:04:47.100Z,95392.00
2024-04-07T11:05:47.161Z,95390.00
2024-04-07T11:06:47.267Z,95389.00
2024-04-07T11:07:47.410Z,95384.00
2024-04-07T11:08:47.465Z,95385.00
2024-04-07T11:09:47.569Z,95385.00
2024-04-07T11:10:47.706Z,95386.00
2024-04-07T11:11:47.764Z,95385.00
2024-04-07T11:12:47.897Z,95383.00
2024-04-07T11:13:47.994Z,95384.00
2024-04-07T11:14:48.098Z,95381.00
2024-04-07T11:15:48.220Z,95381.00
2024-04-07T11:16:48.301Z,95380.00
2024-04-07T11:17:48.426Z,95379.00
2024-04-07T11:18:48.522Z,95376.00
2024-04-07T11:19:48.625Z,95376.00
2024-04-07T11:20:48.733Z,95373.00
2024-04-07T11:21:48.808Z,95371.00
2024-04-07T11:22:48.945Z,95370.00
2024-04-07T11:23:49.009Z,95365.00
2024-04-07T11:24:49.109Z,95365.00
2024-04-07T11:25:49.225Z,95364.00
2024-04-07T11:26:49.312Z,95363.00
2024-04-07T11:27:49.421Z,95359.00
2024-04-07T11:28:49.548Z,95358.00
2024-04-07T11:29:49.613Z,95360.00
2024-04-07T11:30:49.703Z,95357.00
2024-04-07T11:31:57.382Z,95355.00
2024-04-07T11:32:50.809Z,95353.00
2024-04-07T11:33:49.828Z,95351.00
2024-04-07T11:34:49.815Z,95350.00
2024-04-07T11:35:49.843Z,95348.00
2024-04-07T11:36:49.847Z,95345.00
2024-04-07T11:37:49.876Z,95344.00
2024-04-07T11:38:49.904Z,95340.00
2024-04-07T11:39:56.903Z,95340.00
2024-04-07T11:40:50.915Z,95337.00
2024-04-07T11:41:49.926Z,95337.00
2024-04-07T11:42:49.952Z,95334.00
2024-04-07T11:43:49.988Z,95337.00
2024-04-07T11:44:49.958Z,95336.00
2024-04-07T11:45:49.974Z,95333.00
2024-04-07T11:46:50.025Z,95334.00